createdAt,value
2022-10-05T00:01:54.845Z,16.11
2022-10-05T00:04:26.260Z,15.92
2022-10-05T00:07:17.600Z,16.24
2022-10-05T00:09:45.617Z,16.03
2022-10-05T00:12:16.912Z,16.17
2022-10-05T00:14:44.686Z,16.11
2022-10-05T00:17:22.289Z,16.16
2022-10-05T00:19:52.217Z,15.79
2022-10-05T00:22:30.117Z,16.24
2022-10-05T00:24:58.693Z,16.04
2022-10-05T00:27:27.294Z,16.05
2022-10-05T00:29:58.422Z,16.08
2022-10-05T00:32:24.789Z,16.02
2022-10-05T00:34:51.373Z,15.86
2022-10-05T00:37:17.943Z,16.17
2022-10-05T00:39:44.358Z,15.88
2022-10-05T00:42:49.117Z,16.15
2022-10-05T00:45:27.226Z,16.04
2022-10-05T00:48:38.981Z,15.94
2022-10-05T00:51:26.152Z,15.96
2022-10-05T00:53:54.740Z,16.19
2022-10-05T00:56:58.006Z,15.86
2022-10-05T00:59:43.704Z,16.16
2022-10-05T01:02:23.716Z,16.02
2022-10-05T01:05:11.905Z,16.17
2022-10-05T01:07:50.763Z,16.08
2022-10-05T01:10:23.329Z,16.13
2022-10-05T01:13:08.315Z,16.01
2022-10-05T01:15:57.775Z,15.97
2022-10-05T01:18:48.529Z,16.07
2022-10-05T01:21:20.313Z,15.91
2022-10-05T01:24:19.058Z,16.05
2022-10-05T01:26:51.313Z,16.02
2022-10-05T01:29:27.285Z,15.83
2022-10-05T01:32:15.541Z,15.77
2022-10-05T01:34:41.764Z,15.76
2022-10-05T01:37:29.826Z,15.91
2022-10-05T01:40:22.748Z,15.69
2022-10-05T01:42:55.937Z,15.96
2022-10-05T01:45:53.940Z,15.92
2022-10-05T01:48:37.854Z,15.76
2022-10-05T01:51:12.095Z,16.04
2022-10-05T01:53:48.569Z,15.64
2022-10-05T07:58:44.396Z,16.13
2022-10-05T08:01:23.333Z,15.92
2022-10-05T08:03:54.305Z,16.15
2022-10-05T08:06:34.671Z,16.14
2022-10-05T08:09:14.804Z,16.02
2022-10-05T08:12:02.482Z,16.17
2022-10-05T08:14:37.553Z,16.19
2022-10-05T08:17:11.818Z,16.10
2022-10-05T08:19:54.259Z,16.28
2022-10-05T08:22:26.086Z,16.26
2022-10-05T08:24:59.434Z,16.39
2022-10-05T08:27:32.093Z,16.38
2022-10-05T08:30:01.531Z,16.46
2022-10-05T08:32:31.869Z,16.12
2022-10-05T08:35:11.624Z,16.33
2022-10-05T08:37:41.157Z,16.55
2022-10-05T08:40:35.728Z,16.47
2022-10-05T08:43:35.330Z,16.47
2022-10-05T08:46:20.187Z,16.58
2022-10-05T08:48:57.148Z,16.38
2022-10-05T08:51:45.740Z,16.50
2022-10-05T08:54:38.580Z,16.42
2022-10-05T08:57:46.549Z,16.46
2022-10-05T09:00:19.063Z,16.35
2022-10-05T09:03:13.429Z,16.54
2022-10-05T09:05:42.766Z,16.55
2022-10-05T09:08:37.989Z,16.37
2022-10-05T09:11:35.796Z,16.39
2022-10-05T09:14:21.785Z,16.39
2022-10-05T09:16:52.313Z,16.55
2022-10-05T09:19:57.056Z,16.57
2022-10-05T09:22:38.823Z,16.74
2022-10-05T09:25:29.019Z,16.59
2022-10-05T09:27:57.592Z,16.82
2022-10-05T09:30:33.176Z,16.94
2022-10-05T09:33:13.429Z,16.95
2022-10-05T09:35:54.989Z,16.70
2022-10-05T09:38:50.745Z,16.80
2022-10-05T09:41:35.350Z,16.92
2022-10-05T09:44:20.599Z,17.12
2022-10-05T09:47:21.140Z,17.15
2022-10-05T09:50:04.923Z,17.05
2022-10-05T09:52:59.692Z,17.07
2022-10-05T09:55:42.118Z,17.41
2022-10-05T09:58:44.440Z,17.29
2022-10-05T10:01:33.807Z,17.41
2022-10-05T10:04:28.609Z,17.25
2022-10-05T10:07:27.356Z,17.37
2022-10-05T10:10:15.457Z,17.44
2022-10-05T10:12:52.717Z,17.42
2022-10-05T10:15:35.008Z,17.42
2022-10-05T10:18:25.308Z,17.12
2022-10-05T10:20:58.939Z,17.22
2022-10-05T10:24:02.653Z,17.33
2022-10-05T10:27:06.599Z,17.28
2022-10-05T10:29:54.787Z,17.33
2022-10-05T10:32:27.120Z,17.28
2022-10-05T10:34:59.432Z,17.40
2022-10-05T10:37:45.201Z,17.11
2022-10-05T10:40:37.990Z,17.16
2022-10-05T10:43:35.841Z,17.31
2022-10-05T10:46:20.790Z,17.22
2022-10-05T10:48:50.219Z,17.29
2022-10-05T10:51:35.265Z,17.38
2022-10-05T10:54:25.169Z,17.29
2022-10-05T10:57:05.923Z,17.31
2022-10-05T11:00:07.937Z,17.36
2022-10-05T11:02:59.054Z,17.45
2022-10-05T11:05:49.003Z,17.27
2022-10-05T11:08:50.669Z,17.43
2022-10-05T11:11:19.872Z,17.41
2022-10-05T11:13:53.705Z,17.27
2022-10-05T11:16:55.013Z,17.31
2022-10-05T11:20:03.668Z,17.41
2022-10-05T11:22:46.595Z,17.50
2022-10-05T11:25:25.183Z,17.34
2022-10-05T11:28:00.365Z,17.52
2022-10-05T11:31:04.525Z,17.64
2022-10-05T11:34:02.472Z,17.50
2022-10-05T11:37:04.648Z,17.58
2022-10-05T11:39:55.641Z,17.48
2022-10-05T11:42:50.749Z,17.81
2022-10-05T11:45:24.094Z,17.76
2022-10-05T11:48:03.979Z,17.59
2022-10-05T11:50:39.934Z,17.35
2022-10-05T11:53:07.543Z,17.78
2022-10-05T11:55:43.562Z,17.70
2022-10-05T11:58:19.454Z,17.75
2022-10-05T12:01:18.111Z,17.80
2022-10-05T12:03:56.968Z,17.95
2022-10-05T12:06:42.093Z,17.79
2022-10-05T12:09:24.985Z,17.76
2022-10-05T12:12:14.167Z,17.59
2022-10-05T12:15:03.706Z,17.50
2022-10-05T12:17:37.969Z,17.53
2022-10-05T12:20:15.517Z,17.74
2022-10-05T12:23:06.363Z,17.78
2022-10-05T12:26:01.469Z,18.03
2022-10-05T12:28:35.206Z,18.09
2022-10-05T12:31:16.817Z,18.26
2022-10-05T12:34:01.894Z,18.30
2022-10-05T12:37:03.609Z,18.02
2022-10-05T12:39:33.685Z,18.13
2022-10-05T12:42:13.449Z,17.87
2022-10-05T12:45:24.697Z,18.08
2022-10-05T12:48:05.758Z,17.83
2022-10-05T12:50:37.202Z,17.98
2022-10-05T12:53:25.137Z,17.75
2022-10-05T12:56:13.587Z,17.95
2022-10-05T12:58:47.073Z,17.81
2022-10-05T13:01:37.110Z,17.85
2022-10-05T13:04:03.399Z,18.03
2022-10-05T13:06:42.170Z,18.05
2022-10-05T13:09:18.730Z,18.03
2022-10-05T13:11:50.853Z,17.81
2022-10-05T13:14:37.926Z,17.86
2022-10-05T13:17:15.014Z,17.74
2022-10-05T13:19:45.900Z,18.07
2022-10-05T13:22:30.594Z,18.02
2022-10-05T13:25:18.645Z,18.16
2022-10-05T13:28:12.715Z,18.19
2022-10-05T13:30:41.977Z,18.07
2022-10-05T13:33:40.661Z,17.94
2022-10-05T13:36:22.573Z,18.17
2022-10-05T13:38:58.338Z,18.14
2022-10-05T13:41:34.281Z,17.86
2022-10-05T13:44:28.630Z,18.02
2022-10-05T13:46:54.920Z,17.91
2022-10-05T13:49:26.907Z,17.98
2022-10-05T13:51:58.905Z,18.21
2022-10-05T13:54:40.490Z,18.29
2022-10-05T13:57:23.664Z,18.17
2022-10-05T13:59:54.688Z,18.13
2022-10-05T14:02:24.841Z,18.03
2022-10-05T14:04:58.428Z,18.26
2022-10-05T14:07:38.500Z,18.21
2022-10-05T14:10:11.879Z,18.02
2022-10-05T14:12:43.632Z,18.17
2022-10-05T14:15:28.049Z,18.13
2022-10-05T14:17:54.527Z,17.91
2022-10-05T14:20:31.472Z,17.94
2022-10-05T14:23:01.298Z,17.89
2022-10-05T14:25:29.063Z,18.13
2022-10-05T14:28:25.991Z,18.02
2022-10-05T14:31:13.579Z,17.99
2022-10-05T14:33:40.511Z,17.87
2022-10-05T14:36:21.259Z,17.99
2022-10-05T14:38:49.931Z,18.07
2022-10-05T14:41:27.285Z,17.96
2022-10-05T14:44:04.107Z,17.86
2022-10-05T14:46:34.459Z,17.99
2022-10-05T14:49:24.124Z,17.99
2022-10-05T14:51:51.481Z,17.80
2022-10-05T14:54:36.118Z,17.87
2022-10-05T14:57:08.001Z,17.96
2022-10-05T14:59:47.244Z,17.89
2022-10-05T15:02:36.962Z,17.89
2022-10-05T15:05:15.508Z,18.73
2022-10-05T15:07:44.853Z,19.51
2022-10-05T15:10:38.708Z,18.89
2022-10-05T15:13:12.615Z,18.56
2022-10-05T15:15:54.580Z,18.15
2022-10-05T15:18:34.672Z,18.11
2022-10-05T15:21:23.713Z,18.08
2022-10-05T15:23:55.137Z,17.91
2022-10-05T15:26:47.769Z,17.75
2022-10-05T15:29:38.499Z,17.72
2022-10-05T15:32:32.356Z,17.79
2022-10-05T15:35:24.041Z,17.88
2022-10-05T15:37:55.082Z,17.83
2022-10-05T15:40:35.367Z,17.76
2022-10-05T15:43:04.585Z,18.02
2022-10-05T15:45:34.099Z,17.99
2022-10-05T15:48:05.433Z,17.81
2022-10-05T15:50:56.771Z,17.94
2022-10-05T15:53:34.037Z,17.91
2022-10-05T15:56:25.072Z,17.59
2022-10-05T15:58:59.164Z,17.70
2022-10-05T16:01:49.810Z,17.68
2022-10-05T16:04:23.545Z,17.57
2022-10-05T16:07:14.482Z,17.86
2022-10-05T16:09:52.977Z,17.78
2022-10-05T16:12:30.768Z,17.61
2022-10-05T16:15:16.126Z,17.52
2022-10-05T16:17:54.817Z,17.58
2022-10-05T16:20:40.914Z,17.67
2022-10-05T16:23:29.712Z,17.65
2022-10-05T16:26:12.497Z,17.67
2022-10-05T16:28:49.760Z,17.60
2022-10-05T16:31:21.189Z,17.28
2022-10-05T16:34:06.482Z,17.55
2022-10-05T16:37:04.574Z,17.52
2022-10-05T16:39:52.283Z,17.60
2022-10-05T16:42:38.270Z,17.57
2022-10-05T16:45:23.962Z,17.50
2022-10-05T16:48:21.941Z,17.57
2022-10-05T16:51:07.630Z,17.53
2022-10-05T16:53:39.445Z,17.36
2022-10-05T16:56:13.601Z,17.52
2022-10-05T16:59:06.655Z,17.50
2022-10-05T17:01:43.590Z,17.40
2022-10-05T17:04:49.576Z,17.35
2022-10-05T17:07:47.509Z,17.39
2022-10-05T17:10:48.693Z,17.24
2022-10-05T17:13:19.590Z,17.51
2022-10-05T17:16:03.775Z,17.16
2022-10-05T17:19:02.476Z,17.53
2022-10-05T17:22:03.024Z,17.34
2022-10-05T17:24:44.538Z,17.52
2022-10-05T17:27:25.230Z,17.24
2022-10-05T17:29:56.660Z,17.34
2022-10-05T17:32:22.932Z,17.48
2022-10-05T17:35:01.535Z,17.37
2022-10-05T17:37:27.841Z,17.51
2022-10-05T17:39:56.220Z,17.35
2022-10-05T17:42:32.362Z,17.48
2022-10-05T17:45:12.050Z,17.36
2022-10-05T17:47:55.920Z,17.46
2022-10-05T17:50:57.501Z,17.42
2022-10-05T17:54:06.532Z,17.19
2022-10-05T17:56:58.765Z,17.31
2022-10-05T17:59:46.606Z,17.34
2022-10-05T18:02:36.363Z,17.39
2022-10-05T18:05:12.465Z,17.40
2022-10-05T18:07:40.095Z,17.27
2022-10-05T18:10:09.431Z,17.52
2022-10-05T18:12:48.244Z,17.44
2022-10-05T18:15:24.057Z,17.51
2022-10-05T18:18:19.510Z,17.32
2022-10-05T18:21:08.340Z,17.46
2022-10-05T18:23:36.245Z,17.46
2022-10-05T18:26:07.813Z,17.44
2022-10-05T18:28:51.632Z,17.31
2022-10-05T18:31:39.139Z,17.37
2022-10-05T18:34:43.483Z,17.53
2022-10-05T18:37:36.415Z,17.51
2022-10-05T18:40:27.137Z,17.11
2022-10-05T18:43:13.738Z,17.49
2022-10-05T18:46:08.067Z,17.26
2022-10-05T18:48:57.783Z,17.72
2022-10-05T18:51:28.597Z,17.24
2022-10-05T18:54:27.574Z,17.27
2022-10-05T18:56:54.151Z,17.19
2022-10-05T18:59:39.440Z,17.12
2022-10-05T19:02:10.888Z,17.17
2022-10-05T19:04:57.819Z,16.98
2022-10-05T19:07:43.905Z,16.46
2022-10-05T19:10:28.587Z,16.24
2022-10-05T19:13:02.581Z,16.06
2022-10-05T19:15:50.944Z,15.94
2022-10-05T19:18:30.497Z,15.49
2022-10-05T19:21:25.099Z,15.80
2022-10-05T19:24:16.039Z,15.60
2022-10-05T19:27:01.536Z,15.71
2022-10-05T19:29:41.259Z,15.33
2022-10-05T19:32:17.416Z,15.12
2022-10-05T19:34:43.716Z,15.12
2022-10-05T19:37:16.866Z,14.69
2022-10-05T19:40:20.433Z,14.88
2022-10-05T19:42:56.278Z,14.72
2022-10-05T19:45:23.075Z,14.69
2022-10-05T19:48:08.432Z,14.82
2022-10-05T19:50:37.666Z,14.80
2022-10-05T19:53:10.319Z,14.80
2022-10-05T19:55:41.826Z,14.76
2022-10-05T19:58:26.034Z,14.51
2022-10-05T20:01:00.944Z,14.67
2022-10-05T20:03:29.733Z,14.27
2022-10-05T20:06:01.557Z,14.70
2022-10-05T20:09:00.455Z,14.31
2022-10-05T20:11:27.895Z,14.62
2022-10-05T20:13:55.065Z,14.63
2022-10-05T20:16:50.202Z,14.18
2022-10-05T20:19:50.535Z,14.55
2022-10-05T20:22:27.081Z,14.22
2022-10-05T20:24:56.053Z,14.57
2022-10-05T20:27:48.735Z,14.55
2022-10-05T20:30:30.859Z,14.38
2022-10-05T20:32:58.122Z,14.31
2022-10-05T20:35:27.719Z,14.19
2022-10-05T20:38:00.128Z,14.47
2022-10-05T20:40:28.966Z,14.50
2022-10-05T20:42:56.765Z,14.38
2022-10-05T20:45:23.416Z,14.16
2022-10-05T20:47:50.931Z,14.37
2022-10-05T20:50:17.554Z,14.49
2022-10-05T20:52:44.142Z,14.15
2022-10-05T20:55:11.502Z,13.88
2022-10-05T20:57:41.484Z,14.09
2022-10-05T21:00:09.786Z,14.17
2022-10-05T21:02:37.986Z,14.10
2022-10-05T21:05:04.741Z,14.02
2022-10-05T21:07:34.012Z,13.83
2022-10-05T21:10:01.197Z,13.87
2022-10-05T21:12:27.580Z,13.72
2022-10-05T21:14:54.026Z,13.92
2022-10-05T21:17:20.397Z,13.89
2022-10-05T21:19:47.291Z,13.88
2022-10-05T21:22:13.740Z,13.91
2022-10-05T21:24:40.888Z,13.92
2022-10-05T21:27:07.595Z,13.82
2022-10-05T21:29:35.253Z,13.56
2022-10-05T21:32:03.429Z,13.81
2022-10-05T21:34:30.040Z,13.30
2022-10-05T21:36:56.401Z,13.15
2022-10-05T21:39:23.533Z,13.58
2022-10-05T21:41:50.009Z,13.21
2022-10-05T21:44:16.610Z,13.34
2022-10-05T21:46:43.027Z,13.22
2022-10-05T21:49:09.773Z,13.49
2022-10-05T21:51:36.614Z,13.26
2022-10-05T21:54:08.316Z,13.33
2022-10-05T21:56:38.609Z,12.99
2022-10-05T21:59:07.585Z,13.28
2022-10-05T22:01:35.958Z,13.33
2022-10-05T22:04:06.167Z,13.15
2022-10-05T22:06:33.486Z,13.40
2022-10-05T22:08:59.938Z,12.86
2022-10-05T22:11:26.377Z,13.15
2022-10-05T22:13:53.657Z,13.28
2022-10-05T22:16:21.887Z,13.19
2022-10-05T22:18:48.869Z,13.12
2022-10-05T22:21:15.649Z,13.09
2022-10-05T22:23:43.477Z,13.25
2022-10-05T22:26:11.844Z,13.25
2022-10-05T22:28:39.813Z,13.19
2022-10-05T22:31:17.378Z,13.15
2022-10-05T22:33:44.159Z,13.01
2022-10-05T22:36:12.945Z,13.03
2022-10-05T22:38:49.128Z,13.13
2022-10-05T22:41:19.943Z,13.04
2022-10-05T22:43:52.717Z,13.02
2022-10-05T22:46:20.269Z,13.06
2022-10-05T22:48:49.358Z,12.99
2022-10-05T22:51:19.102Z,13.11
2022-10-05T22:53:45.756Z,13.07
2022-10-05T22:56:13.513Z,13.17
2022-10-05T22:58:41.157Z,13.12
2022-10-05T23:01:12.809Z,13.15
2022-10-05T23:03:49.227Z,13.14
2022-10-05T23:06:18.393Z,13.23
2022-10-05T23:08:55.742Z,13.26
2022-10-05T23:11:27.170Z,13.19
2022-10-05T23:14:05.641Z,13.25
2022-10-05T23:16:32.884Z,13.31
2022-10-05T23:19:03.186Z,13.15
2022-10-05T23:21:30.352Z,13.26
2022-10-05T23:23:59.767Z,13.12
2022-10-05T23:26:28.544Z,13.22
2022-10-05T23:28:55.041Z,13.14
2022-10-05T23:31:23.766Z,13.09
2022-10-05T23:33:50.975Z,13.09
2022-10-05T23:36:23.631Z,13.04
2022-10-05T23:38:54.847Z,13.06
2022-10-05T23:41:21.435Z,12.99
2022-10-05T23:43:49.539Z,13.07
2022-10-05T23:46:21.183Z,12.93
2022-10-05T23:48:48.979Z,12.95
2022-10-05T23:51:19.107Z,12.86
2022-10-05T23:53:48.148Z,13.02
2022-10-05T23:56:19.935Z,12.90
2022-10-05T23:58:46.521Z,12.94
